Time;durP1;ratioP1;P1;durP2;ratioP2;P2;SDS_P1;SDS_P2;PMS_P1;PMS_P2;Temp;Humidity;BMP_temperature;BMP_pressure;BME280_temperature;BME280_humidity;BME280_pressure;Samples;Min_cycle;Max_cycle;Signal;HPM_P1;HPM_P2
2021/05/21 00:00:40;;;;;;;6.20;2.55;;;19.40;48.90;;;;;;5094808;28;20472;-74
2021/05/21 00:03:06;;;;;;;5.63;2.80;;;19.40;48.80;;;;;;5094768;28;20032;-73
2021/05/21 00:05:31;;;;;;;5.15;2.60;;;19.50;48.90;;;;;;5094882;28;20031;-73
2021/05/21 00:07:57;;;;;;;5.05;2.28;;;19.40;48.90;;;;;;5093666;28;20488;-73
2021/05/21 00:10:23;;;;;;;5.75;2.90;;;19.40;48.90;;;;;;5094524;28;20083;-73
2021/05/21 00:12:49;;;;;;;5.32;2.80;;;19.50;48.90;;;;;;5094298;28;20024;-73
2021/05/21 00:15:15;;;;;;;6.35;2.60;;;19.40;48.90;;;;;;5094669;28;20468;-73
2021/05/21 00:17:41;;;;;;;5.88;2.80;;;19.40;48.90;;;;;;5094449;28;20472;-73
2021/05/21 00:20:07;;;;;;;5.95;3.10;;;19.40;48.90;;;;;;5094528;28;20039;-72
2021/05/21 00:22:32;;;;;;;4.80;2.40;;;19.40;48.90;;;;;;5094188;28;20118;-71
2021/05/21 00:24:58;;;;;;;5.22;2.63;;;19.40;48.90;;;;;;5094497;28;20542;-73
2021/05/21 00:27:23;;;;;;;5.85;2.83;;;19.40;48.80;;;;;;5094298;28;20127;-73
2021/05/21 00:29:49;;;;;;;5.32;2.70;;;19.40;48.90;;;;;;5094288;28;20036;-73
2021/05/21 00:32:15;;;;;;;5.03;2.45;;;19.40;48.90;;;;;;5092854;28;20020;-72
2021/05/21 00:34:40;;;;;;;5.28;3.00;;;19.40;48.90;;;;;;5093098;28;20024;-73
2021/05/21 00:37:06;;;;;;;5.72;2.70;;;19.40;48.90;;;;;;5094448;28;20031;-72
2021/05/21 00:39:31;;;;;;;6.43;3.33;;;19.30;48.90;;;;;;5094618;28;20107;-73
2021/05/21 00:41:57;;;;;;;5.82;2.75;;;19.40;48.90;;;;;;5094378;28;20031;-72
2021/05/21 00:44:22;;;;;;;5.95;2.67;;;19.40;48.90;;;;;;5094409;28;20016;-73
2021/05/21 00:46:49;;;;;;;6.30;2.97;;;19.40;48.90;;;;;;5094454;28;20036;-73
2021/05/21 00:49:17;;;;;;;5.35;2.83;;;19.40;48.80;;;;;;5093988;28;20375;-74
2021/05/21 00:51:45;;;;;;;4.97;2.60;;;19.30;48.90;;;;;;5093625;28;20035;-73
2021/05/21 00:54:11;;;;;;;5.35;2.90;;;19.30;48.80;;;;;;5094126;28;20111;-73
2021/05/21 00:56:36;;;;;;;4.57;2.38;;;19.40;48.90;;;;;;5094659;28;20051;-73
2021/05/21 00:59:02;;;;;;;6.03;2.95;;;19.30;48.90;;;;;;5093957;28;20076;-73
2021/05/21 01:01:30;;;;;;;5.72;3.17;;;19.30;48.90;;;;;;5094504;28;20375;-73
2021/05/21 01:03:56;;;;;;;6.10;2.80;;;19.30;48.90;;;;;;5094674;28;20020;-73
2021/05/21 01:06:21;;;;;;;5.28;2.53;;;19.30;48.90;;;;;;5094542;28;20085;-73
2021/05/21 01:08:47;;;;;;;5.10;2.53;;;19.30;48.80;;;;;;5095017;28;20384;-72
2021/05/21 01:11:12;;;;;;;5.75;2.65;;;19.30;48.90;;;;;;5095912;28;20488;-72
2021/05/21 01:13:38;;;;;;;5.20;2.83;;;19.30;48.90;;;;;;5106274;28;20032;-72
2021/05/21 01:16:05;;;;;;;6.47;3.05;;;19.30;48.90;;;;;;5098704;28;20024;-73
2021/05/21 01:18:30;;;;;;;6.47;3.20;;;19.30;48.90;;;;;;5095925;28;20364;-73
2021/05/21 01:20:56;;;;;;;6.00;3.05;;;19.30;48.90;;;;;;5093980;28;20035;-73
2021/05/21 01:23:22;;;;;;;5.70;2.90;;;19.30;48.90;;;;;;5093556;28;20028;-73
2021/05/21 01:25:47;;;;;;;6.25;3.55;;;19.30;48.90;;;;;;5093443;28;20052;-73
2021/05/21 01:28:15;;;;;;;5.75;3.00;;;19.30;48.90;;;;;;5093220;28;20123;-73
2021/05/21 01:30:41;;;;;;;6.15;3.17;;;19.30;48.80;;;;;;5093079;28;20020;-72
2021/05/21 01:33:09;;;;;;;6.63;3.00;;;19.30;48.80;;;;;;5093339;28;20483;-72
2021/05/21 01:35:35;;;;;;;5.72;3.08;;;19.30;48.90;;;;;;5093352;28;20035;-72
2021/05/21 01:38:01;;;;;;;6.30;3.10;;;19.30;48.90;;;;;;5093468;28;20024;-72
2021/05/21 01:40:27;;;;;;;5.93;3.13;;;19.30;48.90;;;;;;5093584;28;20484;-73
2021/05/21 01:42:55;;;;;;;5.80;2.97;;;19.30;48.90;;;;;;5093655;28;20031;-73
2021/05/21 01:45:21;;;;;;;5.57;3.08;;;19.30;48.90;;;;;;5093105;28;20048;-73
2021/05/21 01:47:47;;;;;;;5.43;2.92;;;19.30;48.80;;;;;;5092601;28;20144;-73
2021/05/21 01:50:15;;;;;;;6.60;3.10;;;19.30;48.90;;;;;;5092638;28;20069;-73
2021/05/21 01:52:40;;;;;;;6.50;3.17;;;19.30;48.90;;;;;;5093016;28;20032;-73
2021/05/21 01:55:06;;;;;;;5.28;3.03;;;19.30;48.80;;;;;;5092707;28;20024;-73
2021/05/21 01:57:35;;;;;;;6.63;3.33;;;19.30;48.80;;;;;;5092813;28;20030;-73
2021/05/21 02:00:02;;;;;;;5.32;2.85;;;19.30;48.90;;;;;;5092652;28;20459;-73
2021/05/21 02:02:27;;;;;;;6.45;3.10;;;19.30;48.90;;;;;;5092661;28;20035;-72
2021/05/21 02:04:53;;;;;;;6.03;3.22;;;19.20;48.90;;;;;;5092847;28;20020;-73
2021/05/21 02:07:18;;;;;;;6.25;3.10;;;19.30;48.90;;;;;;5093048;28;20510;-73
2021/05/21 02:09:58;;;;;;;5.85;2.88;;;19.30;48.90;;;;;;5092807;28;20024;-73
2021/05/21 02:12:24;;;;;;;6.03;3.08;;;19.20;48.90;;;;;;5092592;28;20016;-73
2021/05/21 02:14:51;;;;;;;6.65;3.35;;;19.20;48.90;;;;;;5092842;28;20476;-72
2021/05/21 02:17:16;;;;;;;7.25;3.53;;;19.20;48.80;;;;;;5092977;28;20020;-72
2021/05/21 02:19:42;;;;;;;5.85;2.97;;;19.30;48.90;;;;;;5092793;28;20031;-72
2021/05/21 02:22:08;;;;;;;5.95;3.13;;;19.20;48.90;;;;;;5093051;28;20024;-73
2021/05/21 02:24:35;;;;;;;6.82;3.20;;;19.30;48.90;;;;;;5092994;28;20036;-72
2021/05/21 02:27:00;;;;;;;5.43;2.90;;;19.20;48.90;;;;;;5093098;28;20125;-73
2021/05/21 02:29:26;;;;;;;6.78;3.20;;;19.20;48.90;;;;;;5093092;28;20059;-73
2021/05/21 02:31:51;;;;;;;6.03;3.70;;;19.20;48.90;;;;;;5095312;28;20039;-73
2021/05/21 02:34:17;;;;;;;6.35;3.03;;;19.20;48.90;;;;;;5096205;28;20069;-72
2021/05/21 02:36:43;;;;;;;6.45;3.13;;;19.20;48.80;;;;;;5096710;28;20448;-73
2021/05/21 02:39:08;;;;;;;5.57;2.83;;;19.30;48.90;;;;;;5096545;28;20020;-73
2021/05/21 02:41:34;;;;;;;6.60;3.47;;;19.20;48.80;;;;;;5095076;28;20028;-73
2021/05/21 02:43:59;;;;;;;7.03;3.45;;;19.20;48.80;;;;;;5096217;28;20420;-73
2021/05/21 02:46:25;;;;;;;6.70;3.25;;;19.20;48.80;;;;;;5096026;28;20024;-73
2021/05/21 02:48:51;;;;;;;7.07;3.80;;;19.20;48.80;;;;;;5095998;28;20035;-73
2021/05/21 02:51:16;;;;;;;5.78;3.20;;;19.20;48.80;;;;;;5095987;28;20052;-73
2021/05/21 02:53:42;;;;;;;7.03;2.85;;;19.20;48.80;;;;;;5096027;28;20058;-73
2021/05/21 02:56:07;;;;;;;6.38;3.47;;;19.20;48.80;;;;;;5096123;28;20464;-74
2021/05/21 02:58:33;;;;;;;6.03;3.22;;;19.20;48.80;;;;;;5095828;28;20020;-73
2021/05/21 03:00:59;;;;;;;6.72;3.67;;;19.20;48.80;;;;;;5096132;28;20035;-73
2021/05/21 03:03:24;;;;;;;6.80;3.42;;;19.20;48.80;;;;;;5095890;28;20042;-72
2021/05/21 03:05:50;;;;;;;6.93;3.53;;;19.20;48.80;;;;;;5095980;28;20031;-73
2021/05/21 03:08:16;;;;;;;6.55;3.33;;;19.20;48.80;;;;;;5095747;28;20382;-73
2021/05/21 03:10:41;;;;;;;6.32;3.22;;;19.20;48.80;;;;;;5095801;28;20024;-72
2021/05/21 03:13:07;;;;;;;6.25;3.38;;;19.20;48.80;;;;;;5094472;28;20433;-72
2021/05/21 03:15:33;;;;;;;8.48;3.45;;;19.20;48.80;;;;;;5095889;28;20016;-72
2021/05/21 03:18:02;;;;;;;5.63;3.10;;;19.20;48.80;;;;;;5096028;28;20479;-71
2021/05/21 03:20:28;;;;;;;6.20;3.33;;;19.20;48.80;;;;;;5095797;28;20032;-71
2021/05/21 03:22:54;;;;;;;6.18;3.20;;;19.20;48.80;;;;;;5095987;28;20027;-72
2021/05/21 03:25:19;;;;;;;6.97;3.60;;;19.20;48.80;;;;;;5095292;28;20056;-72
2021/05/21 03:27:45;;;;;;;6.97;3.55;;;19.20;48.80;;;;;;5095074;28;20044;-73
2021/05/21 03:30:11;;;;;;;6.43;3.35;;;19.20;48.80;;;;;;5093946;28;20024;-72
2021/05/21 03:32:37;;;;;;;7.05;3.60;;;19.20;48.80;;;;;;5095059;28;20070;-72
2021/05/21 03:35:04;;;;;;;6.00;3.03;;;19.20;48.80;;;;;;5095068;28;20447;-72
2021/05/21 03:37:30;;;;;;;6.28;3.22;;;19.20;48.80;;;;;;5095217;28;20050;-72
2021/05/21 03:39:56;;;;;;;6.80;3.42;;;19.20;48.80;;;;;;5095463;28;20109;-72
2021/05/21 03:42:21;;;;;;;7.18;3.30;;;19.20;48.80;;;;;;5093882;28;20024;-72
2021/05/21 03:44:47;;;;;;;8.48;3.30;;;19.20;48.80;;;;;;5093846;28;20028;-72
2021/05/21 03:47:12;;;;;;;7.03;3.50;;;19.20;48.80;;;;;;5094819;28;20069;-72
2021/05/21 03:49:38;;;;;;;5.75;2.90;;;19.20;48.80;;;;;;5094935;28;20361;-73
2021/05/21 03:52:04;;;;;;;5.75;3.33;;;19.20;48.80;;;;;;5094944;28;20048;-72
2021/05/21 03:54:29;;;;;;;6.05;3.35;;;19.20;48.80;;;;;;5094727;28;20028;-72
2021/05/21 03:56:55;;;;;;;5.60;3.22;;;19.20;48.80;;;;;;5095036;28;20042;-72
2021/05/21 03:59:21;;;;;;;6.30;3.58;;;19.20;48.80;;;;;;5094883;28;20070;-72
2021/05/21 04:01:47;;;;;;;5.88;3.10;;;19.20;48.80;;;;;;5094854;28;20062;-72
2021/05/21 04:04:13;;;;;;;4.97;2.50;;;19.20;48.80;;;;;;5094737;28;20020;-72
2021/05/21 04:06:39;;;;;;;6.07;3.33;;;19.20;48.80;;;;;;5094391;28;20039;-72
2021/05/21 04:09:06;;;;;;;5.57;3.13;;;19.20;48.70;;;;;;5094805;28;20024;-73
2021/05/21 04:11:41;;;;;;;5.93;3.15;;;19.20;48.80;;;;;;5094695;28;20052;-73
2021/05/21 04:14:07;;;;;;;;;;;19.20;48.70;;;;;;5093734;28;20024;-72
2021/05/21 04:16:33;;;;;;;6.57;3.40;;;19.20;48.70;;;;;;5094462;28;20287;-72
2021/05/21 04:18:59;;;;;;;6.65;3.60;;;19.20;48.70;;;;;;5094323;28;20024;-73
2021/05/21 04:21:25;;;;;;;8.15;3.53;;;19.20;48.80;;;;;;5095670;28;20052;-73
2021/05/21 04:23:51;;;;;;;6.20;3.22;;;19.20;48.70;;;;;;5095428;28;20028;-73
2021/05/21 04:26:17;;;;;;;6.65;3.28;;;19.20;48.70;;;;;;5100246;28;20072;-73
2021/05/21 04:28:47;;;;;;;7.30;3.53;;;19.20;48.70;;;;;;5094110;28;20131;-73
2021/05/21 04:31:13;;;;;;;7.63;3.28;;;19.20;48.70;;;;;;5094363;28;20027;-73
2021/05/21 04:33:38;;;;;;;6.13;3.38;;;19.20;48.70;;;;;;5094199;28;20028;-73
2021/05/21 04:36:05;;;;;;;6.72;3.60;;;19.20;48.70;;;;;;5094489;28;20024;-73
2021/05/21 04:38:30;;;;;;;6.18;3.10;;;19.20;48.70;;;;;;5097291;28;20082;-75
2021/05/21 04:40:56;;;;;;;6.43;3.30;;;19.20;48.70;;;;;;5101930;28;20113;-73
2021/05/21 04:43:23;;;;;;;7.15;3.65;;;19.20;48.60;;;;;;5102335;28;20099;-74
2021/05/21 04:45:49;;;;;;;5.65;3.08;;;19.20;48.60;;;;;;5101218;28;20024;-75
2021/05/21 04:48:15;;;;;;;5.57;3.10;;;19.20;48.60;;;;;;5098531;28;20111;-74
2021/05/21 04:50:41;;;;;;;6.07;3.20;;;19.20;48.60;;;;;;5103933;28;20016;-75
2021/05/21 04:53:07;;;;;;;6.60;3.25;;;19.20;48.60;;;;;;5105013;28;20051;-74
2021/05/21 04:55:32;;;;;;;5.40;2.85;;;19.20;48.60;;;;;;5104081;28;20036;-72
2021/05/21 04:57:58;;;;;;;5.60;2.97;;;19.20;48.60;;;;;;5104439;28;20028;-72
2021/05/21 05:00:23;;;;;;;5.75;3.40;;;19.20;48.60;;;;;;5104470;28;20024;-72
2021/05/21 05:02:49;;;;;;;5.47;2.80;;;19.20;48.60;;;;;;5103825;28;20035;-73
2021/05/21 05:05:14;;;;;;;6.90;3.38;;;19.20;48.60;;;;;;5103367;28;20032;-73
2021/05/21 05:07:40;;;;;;;6.00;3.35;;;19.20;48.60;;;;;;5099299;28;20036;-73
2021/05/21 05:10:05;;;;;;;6.38;3.08;;;19.20;48.50;;;;;;5093872;28;20024;-73
2021/05/21 05:12:31;;;;;;;5.97;3.20;;;19.20;48.60;;;;;;5094503;28;20024;-72
2021/05/21 05:14:57;;;;;;;5.97;3.05;;;19.20;48.60;;;;;;5094180;28;20024;-73
2021/05/21 05:17:22;;;;;;;6.03;3.17;;;19.20;48.60;;;;;;5093951;28;20058;-73
2021/05/21 05:19:48;;;;;;;5.22;2.83;;;19.20;48.60;;;;;;5093798;28;20044;-73
2021/05/21 05:22:13;;;;;;;6.95;3.38;;;19.20;48.60;;;;;;5093730;28;20024;-73
2021/05/21 05:24:39;;;;;;;5.90;3.22;;;19.20;48.60;;;;;;5093487;28;20088;-73
2021/05/21 05:27:06;;;;;;;6.80;2.63;;;19.20;48.60;;;;;;5093781;28;20495;-73
2021/05/21 05:29:34;;;;;;;5.78;3.15;;;19.30;48.60;;;;;;5093678;28;20028;-73
2021/05/21 05:32:01;;;;;;;5.50;2.75;;;19.20;48.60;;;;;;5093153;28;20047;-73
2021/05/21 05:34:27;;;;;;;5.90;2.92;;;19.20;48.60;;;;;;5093362;28;20115;-73
2021/05/21 05:36:54;;;;;;;6.22;2.90;;;19.20;48.60;;;;;;5093249;28;20107;-73
2021/05/21 05:39:20;;;;;;;5.70;3.42;;;19.20;48.60;;;;;;5093317;28;20028;-73
2021/05/21 05:41:49;;;;;;;5.93;3.15;;;19.20;48.60;;;;;;5093563;28;20024;-73
2021/05/21 05:44:15;;;;;;;5.75;2.95;;;19.20;48.60;;;;;;5093912;28;20074;-73
2021/05/21 05:46:41;;;;;;;5.63;2.95;;;19.20;48.60;;;;;;5095704;28;20020;-73
2021/05/21 05:49:06;;;;;;;5.80;2.95;;;19.20;48.60;;;;;;5093143;28;20455;-74
2021/05/21 05:51:31;;;;;;;5.72;2.70;;;19.30;48.60;;;;;;5092982;28;20043;-73
2021/05/21 05:53:57;;;;;;;6.30;3.17;;;19.20;48.60;;;;;;5093144;28;20119;-73
2021/05/21 05:56:23;;;;;;;5.82;3.30;;;19.30;48.60;;;;;;5093367;28;20016;-73
2021/05/21 05:58:48;;;;;;;5.80;3.10;;;19.20;48.60;;;;;;5093108;28;20021;-73
2021/05/21 06:01:14;;;;;;;5.38;2.65;;;19.20;48.60;;;;;;5092955;28;20099;-74
2021/05/21 06:03:39;;;;;;;5.35;2.53;;;19.20;48.60;;;;;;5093022;28;20514;-73
2021/05/21 06:06:05;;;;;;;6.50;3.33;;;19.20;48.60;;;;;;5094842;28;20035;-73
2021/05/21 06:08:30;;;;;;;5.38;2.80;;;19.20;48.60;;;;;;5096877;28;20038;-73
2021/05/21 06:10:57;;;;;;;5.63;2.80;;;19.20;48.60;;;;;;5097008;28;20024;-73
2021/05/21 06:13:24;;;;;;;6.85;3.17;;;19.20;48.60;;;;;;5096894;28;20027;-73
2021/05/21 06:15:50;;;;;;;5.57;2.92;;;19.20;48.60;;;;;;5097201;28;20128;-73
2021/05/21 06:18:15;;;;;;;5.78;2.72;;;19.30;48.60;;;;;;5097110;28;20016;-73
2021/05/21 06:20:41;;;;;;;5.22;2.60;;;19.20;48.60;;;;;;5095367;28;20542;-73
2021/05/21 06:23:07;;;;;;;6.68;3.35;;;19.20;48.60;;;;;;5096602;28;20020;-73
2021/05/21 06:28:21;;;;;;;5.28;2.63;;;19.30;48.60;;;;;;5096438;28;20032;-73
2021/05/21 06:30:47;;;;;;;6.40;3.00;;;19.30;48.50;;;;;;5096136;28;20020;-73
2021/05/21 06:33:12;;;;;;;5.30;2.80;;;19.30;48.50;;;;;;5096268;28;20111;-73
2021/05/21 06:35:38;;;;;;;5.68;2.97;;;19.30;48.50;;;;;;5096211;28;20069;-73
2021/05/21 06:38:05;;;;;;;4.65;2.47;;;19.30;48.40;;;;;;5096252;28;20028;-73
2021/05/21 06:40:31;;;;;;;6.03;2.72;;;19.30;48.40;;;;;;5096095;28;20028;-73
2021/05/21 06:42:56;;;;;;;5.85;3.15;;;19.30;48.40;;;;;;5096125;28;20392;-73
2021/05/21 06:45:22;;;;;;;6.22;2.88;;;19.40;48.30;;;;;;5096517;28;20042;-73
2021/05/21 06:47:48;;;;;;;6.22;2.80;;;19.50;48.30;;;;;;5095901;28;20044;-73
2021/05/21 06:50:13;;;;;;;5.35;2.25;;;19.50;48.20;;;;;;5094534;28;20035;-73
2021/05/21 06:52:39;;;;;;;4.68;2.30;;;19.50;48.20;;;;;;5095654;28;20097;-73
2021/05/21 06:55:06;;;;;;;5.78;2.67;;;19.40;48.20;;;;;;5095835;28;20357;-72
2021/05/21 06:57:32;;;;;;;5.10;2.47;;;19.50;48.20;;;;;;5096500;28;20020;-72
2021/05/21 06:59:58;;;;;;;5.10;2.65;;;19.50;48.10;;;;;;5094711;28;20032;-72
2021/05/21 07:02:26;;;;;;;5.35;2.47;;;19.50;48.20;;;;;;5096006;28;20302;-72
2021/05/21 07:04:52;;;;;;;5.75;2.83;;;19.50;48.20;;;;;;5095916;28;20027;-72
2021/05/21 07:07:18;;;;;;;5.47;2.47;;;19.50;48.10;;;;;;5095976;28;20036;-72
2021/05/21 07:09:44;;;;;;;6.10;2.78;;;19.50;48.00;;;;;;5095775;28;20455;-72
2021/05/21 07:12:09;;;;;;;7.05;2.45;;;19.50;48.00;;;;;;5094672;28;20012;-72
2021/05/21 07:14:35;;;;;;;4.53;2.58;;;19.60;47.90;;;;;;5098953;28;20031;-72
2021/05/21 07:17:00;;;;;;;5.00;2.53;;;19.50;47.90;;;;;;5095148;28;20379;-71
2021/05/21 07:19:26;;;;;;;5.13;2.40;;;19.50;48.10;;;;;;5095497;28;20036;-73
2021/05/21 07:21:52;;;;;;;5.03;2.70;;;19.50;48.10;;;;;;5095352;28;20028;-74
2021/05/21 07:24:17;;;;;;;5.05;2.45;;;19.50;48.00;;;;;;5094034;28;20559;-72
2021/05/21 07:26:43;;;;;;;4.70;2.25;;;19.60;48.00;;;;;;5094954;28;20031;-73
2021/05/21 07:29:08;;;;;;;4.22;2.42;;;19.60;47.90;;;;;;5095415;28;20034;-73
2021/05/21 07:31:34;;;;;;;5.07;2.60;;;19.50;48.10;;;;;;5095316;28;20353;-73
2021/05/21 07:34:01;;;;;;;4.70;2.30;;;19.50;48.10;;;;;;5094126;28;20032;-73
2021/05/21 07:36:30;;;;;;;4.85;2.33;;;19.50;48.20;;;;;;5095269;28;20028;-72
2021/05/21 07:38:57;;;;;;;4.43;2.28;;;19.50;48.20;;;;;;5093875;28;20020;-72
2021/05/21 07:41:24;;;;;;;4.53;2.15;;;19.50;48.20;;;;;;5095049;28;20028;-72
2021/05/21 07:43:51;;;;;;;5.53;2.25;;;19.50;48.20;;;;;;5095031;28;20028;-73
2021/05/21 07:46:19;;;;;;;3.85;2.00;;;19.50;48.10;;;;;;5094619;28;20020;-72
2021/05/21 07:48:44;;;;;;;4.25;2.00;;;19.60;48.10;;;;;;5094525;28;20060;-72
2021/05/21 07:51:10;;;;;;;4.97;2.42;;;19.60;47.90;;;;;;5094909;28;20027;-72
2021/05/21 07:53:35;;;;;;;5.05;2.40;;;19.60;47.90;;;;;;5094871;28;20094;-72
2021/05/21 07:56:03;;;;;;;4.72;2.38;;;19.60;47.90;;;;;;5094836;28;20036;-72
2021/05/21 07:58:29;;;;;;;4.97;2.22;;;19.60;47.90;;;;;;5094689;28;20038;-72
2021/05/21 08:00:55;;;;;;;4.10;2.20;;;19.60;47.90;;;;;;5094712;28;20016;-72
2021/05/21 08:03:20;;;;;;;6.03;2.40;;;19.60;48.00;;;;;;5094594;28;20055;-73
2021/05/21 08:05:49;;;;;;;6.18;2.63;;;19.50;48.00;;;;;;5094650;28;20456;-74
2021/05/21 08:08:20;;;;;;;5.40;2.50;;;19.60;48.10;;;;;;5094139;28;20036;-74
2021/05/21 08:10:53;;;;;;;4.72;2.13;;;19.60;47.90;;;;;;5094612;28;20031;-74
2021/05/21 08:13:19;;;;;;;5.60;2.30;;;19.60;48.00;;;;;;5095117;28;20422;-73
2021/05/21 08:15:45;;;;;;;4.82;2.25;;;19.60;48.00;;;;;;5093184;28;20021;-74
2021/05/21 08:18:11;;;;;;;5.70;2.38;;;19.60;48.00;;;;;;5094350;28;20333;-73
2021/05/21 08:20:38;;;;;;;4.00;2.13;;;19.60;47.90;;;;;;5094034;28;20024;-74
2021/05/21 08:23:03;;;;;;;4.68;2.28;;;19.70;47.90;;;;;;5094555;28;20430;-74
2021/05/21 08:25:29;;;;;;;5.75;2.40;;;19.70;47.80;;;;;;5094230;28;20123;-74
2021/05/21 08:27:55;;;;;;;7.57;2.50;;;19.70;47.80;;;;;;5093295;28;20418;-74
2021/05/21 08:30:21;;;;;;;3.78;1.90;;;19.70;47.80;;;;;;5094247;28;20036;-74
2021/05/21 08:32:49;;;;;;;4.88;1.90;;;19.70;47.90;;;;;;5094039;28;20039;-74
2021/05/21 08:35:15;;;;;;;6.05;2.60;;;19.60;48.00;;;;;;5094506;28;20027;-74
2021/05/21 08:37:41;;;;;;;4.88;2.20;;;19.60;48.00;;;;;;5093795;28;20032;-73
2021/05/21 08:40:08;;;;;;;7.72;2.20;;;19.70;47.90;;;;;;5093794;28;20070;-73
2021/05/21 08:42:38;;;;;;;4.50;2.08;;;19.60;47.80;;;;;;5094151;28;20032;-73
2021/05/21 08:45:05;;;;;;;5.30;2.20;;;19.70;47.80;;;;;;5094215;28;20016;-73
2021/05/21 08:47:34;;;;;;;5.85;2.22;;;19.70;47.80;;;;;;5094123;28;20127;-74
2021/05/21 08:50:08;;;;;;;4.90;2.20;;;19.70;47.80;;;;;;5094270;28;20452;-74
2021/05/21 08:52:34;;;;;;;4.88;2.08;;;19.70;47.80;;;;;;5094000;28;20027;-74
2021/05/21 08:55:00;;;;;;;4.13;1.98;;;19.70;47.70;;;;;;5093577;28;20020;-73
2021/05/21 08:57:29;;;;;;;6.43;2.28;;;19.70;47.70;;;;;;5093915;28;20073;-74
2021/05/21 08:59:55;;;;;;;4.88;1.95;;;19.70;47.80;;;;;;5093535;28;20032;-73
2021/05/21 09:02:26;;;;;;;5.43;2.13;;;19.70;47.80;;;;;;5093813;28;20076;-73
2021/05/21 09:04:57;;;;;;;6.22;2.50;;;19.70;47.80;;;;;;5094126;28;20035;-73
2021/05/21 09:07:29;;;;;;;3.88;1.98;;;19.60;47.90;;;;;;5094147;28;20387;-73
2021/05/21 09:09:56;;;;;;;4.82;2.22;;;19.60;47.90;;;;;;5094383;28;20471;-74
2021/05/21 09:12:25;;;;;;;4.05;2.10;;;19.60;47.90;;;;;;5094795;28;20020;-72
2021/05/21 09:15:07;;;;;;;5.10;2.20;;;19.60;47.90;;;;;;5099192;28;20024;-72
2021/05/21 09:17:33;;;;;;;4.25;2.00;;;19.70;47.80;;;;;;5093890;28;20028;-73
2021/05/21 09:19:59;;;;;;;4.88;2.22;;;19.70;47.80;;;;;;5094416;28;20070;-73
2021/05/21 09:22:25;;;;;;;4.90;2.17;;;19.70;47.80;;;;;;5092249;28;20027;-72
2021/05/21 09:24:52;;;;;;;4.32;2.03;;;19.60;47.80;;;;;;5093187;28;20040;-74
2021/05/21 09:27:19;;;;;;;4.25;1.75;;;19.70;47.80;;;;;;5091929;28;20122;-74
2021/05/21 09:29:49;;;;;;;4.68;2.10;;;19.60;47.80;;;;;;5092971;28;20487;-73
2021/05/21 09:32:17;;;;;;;5.43;2.00;;;19.60;47.80;;;;;;5093906;28;20032;-74
2021/05/21 09:34:47;;;;;;;4.00;1.80;;;19.60;47.80;;;;;;5093402;28;20024;-73
2021/05/21 09:37:23;;;;;;;5.15;2.00;;;19.60;47.80;;;;;;5093188;28;20051;-74
2021/05/21 09:40:03;;;;;;;5.93;2.22;;;19.60;47.80;;;;;;5093956;28;20060;-74
2021/05/21 09:42:29;;;;;;;5.47;2.17;;;19.60;47.70;;;;;;5096614;28;20028;-74
2021/05/21 09:45:33;;;;;;;4.72;2.05;;;19.60;47.70;;;;;;5095409;28;20027;-73
2021/05/21 09:48:01;;;;;;;5.57;2.20;;;19.70;47.60;;;;;;5096608;28;20557;-74
2021/05/21 09:50:34;;;;;;;5.05;2.15;;;19.70;47.60;;;;;;5096823;28;20566;-73
2021/05/21 09:53:20;;;;;;;5.00;2.03;;;19.70;47.60;;;;;;5096819;28;20028;-74
2021/05/21 09:55:55;;;;;;;5.43;2.15;;;19.70;47.60;;;;;;5096491;28;20321;-71
2021/05/21 09:58:27;;;;;;;5.28;1.80;;;19.70;47.60;;;;;;5096292;28;20020;-74
2021/05/21 10:01:18;;;;;;;4.18;1.90;;;19.70;47.60;;;;;;5096428;28;20028;-74
2021/05/21 10:03:54;;;;;;;7.47;2.28;;;19.70;47.50;;;;;;5096210;28;20047;-72
2021/05/21 10:06:27;;;;;;;6.15;2.22;;;19.70;47.50;;;;;;5096466;28;20077;-73
2021/05/21 10:08:56;;;;;;;5.82;1.92;;;19.70;47.50;;;;;;5096101;28;20137;-74
2021/05/21 10:11:22;;;;;;;6.28;2.13;;;19.70;47.50;;;;;;5096186;28;20023;-73
2021/05/21 10:13:48;;;;;;;7.03;2.08;;;19.70;47.50;;;;;;5096189;28;20201;-73
2021/05/21 10:16:16;;;;;;;4.68;1.80;;;19.70;47.40;;;;;;5094972;28;20052;-72
2021/05/21 10:18:49;;;;;;;6.22;2.00;;;19.70;47.40;;;;;;5097420;28;20095;-72
2021/05/21 10:21:15;;;;;;;4.67;1.70;;;19.80;47.30;;;;;;5097421;28;20099;-73
2021/05/21 10:23:48;;;;;;;4.45;1.75;;;19.80;47.30;;;;;;5097999;28;20073;-72
2021/05/21 10:26:16;;;;;;;8.23;2.10;;;19.70;47.30;;;;;;5098112;28;20563;-73
2021/05/21 10:28:45;;;;;;;4.18;1.90;;;19.70;47.30;;;;;;5100557;28;20035;-72
2021/05/21 10:31:12;;;;;;;5.55;2.00;;;19.70;47.30;;;;;;5098015;28;20490;-72
2021/05/21 10:33:40;;;;;;;4.13;1.92;;;19.70;47.30;;;;;;5096449;28;20379;-72
2021/05/21 10:36:23;;;;;;;6.22;2.60;;;19.70;47.30;;;;;;5096207;28;20039;-72
2021/05/21 10:39:09;;;;;;;5.60;2.08;;;19.80;47.20;;;;;;5094929;28;20418;-72
2021/05/21 10:41:35;;;;;;;3.65;1.50;;;19.80;47.10;;;;;;5096660;28;20024;-73
2021/05/21 10:44:16;;;;;;;4.78;1.95;;;19.80;47.10;;;;;;5096138;28;20024;-73
2021/05/21 10:46:42;;;;;;;4.57;1.67;;;19.80;47.10;;;;;;5096382;28;20020;-72
2021/05/21 10:49:25;;;;;;;6.30;2.00;;;19.90;47.00;;;;;;5096433;28;20050;-73
2021/05/21 10:51:55;;;;;;;4.03;1.80;;;19.90;47.00;;;;;;5095720;28;20012;-73
2021/05/21 10:54:33;;;;;;;2.97;1.67;;;19.90;46.90;;;;;;5096101;28;20428;-72
2021/05/21 10:57:18;;;;;;;4.22;1.80;;;19.90;46.80;;;;;;5096025;28;20031;-73
2021/05/21 10:59:55;;;;;;;4.07;1.85;;;19.90;46.80;;;;;;5095608;28;20028;-73
2021/05/21 11:02:49;;;;;;;4.30;1.60;;;19.90;46.80;;;;;;5096055;28;20475;-73
2021/05/21 11:05:33;;;;;;;5.20;1.65;;;19.90;46.80;;;;;;5081401;28;20082;-72
2021/05/21 11:08:00;;;;;;;5.03;2.10;;;20.00;46.70;;;;;;5095567;28;20046;-73
2021/05/21 11:10:32;;;;;;;6.03;1.73;;;20.00;46.70;;;;;;5095775;28;20028;-72
2021/05/21 11:13:00;;;;;;;6.25;1.98;;;20.00;46.70;;;;;;5095788;28;20047;-71
2021/05/21 11:15:35;;;;;;;5.10;2.00;;;20.00;46.60;;;;;;5095459;28;20023;-72
2021/05/21 11:18:17;;;;;;;3.80;1.98;;;20.00;46.60;;;;;;5095824;28;20026;-73
2021/05/21 11:20:55;;;;;;;5.38;1.70;;;19.90;46.60;;;;;;5095613;28;20024;-73
2021/05/21 11:23:50;;;;;;;4.53;1.92;;;20.00;46.60;;;;;;5095601;28;20058;-72
2021/05/21 11:26:27;;;;;;;4.25;1.83;;;20.00;46.60;;;;;;5094320;28;20044;-73
2021/05/21 11:28:54;;;;;;;4.53;1.60;;;20.00;46.60;;;;;;5097507;28;20039;-72
2021/05/21 11:31:25;;;;;;;4.93;2.17;;;20.00;46.60;;;;;;5096655;28;20031;-73
2021/05/21 11:33:53;;;;;;;4.88;1.73;;;20.00;46.50;;;;;;5097240;28;20031;-73
2021/05/21 11:36:20;;;;;;;4.43;1.40;;;20.00;46.60;;;;;;5105995;28;20115;-73
2021/05/21 11:38:46;;;;;;;5.35;1.98;;;20.00;46.60;;;;;;5105547;28;20024;-73
2021/05/21 11:41:12;;;;;;;4.30;1.58;;;20.00;46.60;;;;;;5106211;28;20024;-73
2021/05/21 11:43:39;;;;;;;4.45;1.70;;;20.00;46.50;;;;;;5106459;28;20080;-73
2021/05/21 11:46:14;;;;;;;5.68;1.70;;;20.00;46.50;;;;;;5104649;28;20035;-73
2021/05/21 11:48:41;;;;;;;3.88;1.75;;;20.00;46.50;;;;;;5104549;28;20047;-74
2021/05/21 11:51:09;;;;;;;4.90;1.65;;;20.10;46.30;;;;;;5103969;28;20047;-73
2021/05/21 11:54:02;;;;;;;4.50;1.70;;;20.10;46.20;;;;;;5097214;28;20470;-72
2021/05/21 11:56:28;;;;;;;5.40;2.25;;;20.10;46.20;;;;;;5096042;28;20054;-72
2021/05/21 11:59:08;;;;;;;5.25;1.85;;;20.10;46.30;;;;;;5095838;28;20070;-73
2021/05/21 12:01:36;;;;;;;4.43;1.45;;;20.10;46.20;;;;;;5095378;28;20034;-73
2021/05/21 12:04:07;;;;;;;5.45;1.60;;;20.10;46.30;;;;;;5093995;28;20086;-73
2021/05/21 12:06:34;;;;;;;6.18;2.28;;;20.10;46.20;;;;;;5094734;28;20107;-73
2021/05/21 12:08:59;;;;;;;5.78;1.92;;;20.10;46.10;;;;;;5094321;28;20031;-73
2021/05/21 12:11:26;;;;;;;4.55;1.60;;;20.10;46.10;;;;;;5093153;28;20027;-72
2021/05/21 12:13:58;;;;;;;4.63;2.08;;;20.20;46.00;;;;;;5094382;28;20020;-73
2021/05/21 12:16:24;;;;;;;6.63;2.38;;;20.20;45.90;;;;;;5093161;28;20066;-72
2021/05/21 12:18:50;;;;;;;6.07;1.83;;;20.10;46.00;;;;;;5094365;28;20028;-72
2021/05/21 12:21:20;;;;;;;4.55;1.80;;;20.20;45.90;;;;;;5094015;28;20030;-72
2021/05/21 12:23:56;;;;;;;3.97;1.60;;;20.20;46.00;;;;;;5110636;27;20412;-72
2021/05/21 12:26:23;;;;;;;6.47;1.85;;;20.20;46.00;;;;;;5109249;28;20544;-72
2021/05/21 12:28:49;;;;;;;5.38;1.55;;;20.20;46.00;;;;;;5110549;28;20031;-71
2021/05/21 12:31:19;;;;;;;4.57;1.75;;;20.40;45.60;;;;;;5110480;28;20441;-72
2021/05/21 12:33:45;;;;;;;4.22;1.50;;;20.30;45.70;;;;;;5110287;28;20031;-71
2021/05/21 12:36:14;;;;;;;4.43;1.70;;;20.30;45.80;;;;;;5110356;28;20054;-72
2021/05/21 12:38:47;;;;;;;6.22;1.98;;;20.20;45.90;;;;;;5110319;28;20082;-74
2021/05/21 12:41:13;;;;;;;6.70;2.10;;;20.20;45.80;;;;;;5110268;28;20012;-72
2021/05/21 12:43:38;;;;;;;6.60;2.13;;;20.20;45.80;;;;;;5108877;28;20398;-73
2021/05/21 12:46:09;;;;;;;8.10;1.27;;;20.30;45.60;;;;;;5110182;28;20024;-73
2021/05/21 12:48:36;;;;;;;4.55;1.65;;;20.30;45.70;;;;;;5110095;28;20031;-73
2021/05/21 12:51:17;;;;;;;4.60;1.80;;;20.40;45.40;;;;;;5110032;28;20360;-72
2021/05/21 12:53:43;;;;;;;6.28;1.50;;;20.50;45.40;;;;;;5109862;28;20020;-72